Glens Falls, NY (12801)

21:58 EST le 19 décembre 2014 (GMT -0500)
Glens Falls, NY | Change Station
CLOSE
Current Station
Stations météorologiques personnelles
Location: Glens Falls, NY
Altitude: 331 ft
Stations météo à proximité

Alt. 331 ft 43.31 °N, 73.64 °W | Updated 6 minutes ago

Overcast
Couvert
25.9 ° F
Paraît 26 ° F
N
1.7
Vent Variable Vent de Est

Aujourd'hui
Haut(e) -- | Bas -- ° F
--% Risque de précip.
Hier
Haut(e) -- | Bas -- ° F
Precip. -- pouce
7:22 AM 4:20 PM
Lune descendante, 5% visible
Pression 30.23 pouce
Visibilité 10.0 Miles terrestres
Nuages Couvert 2200 ft
Refroidissement éolien 26 ° F
Point de rosée 22 ° F
Humidité 85%
Précipitations 0.00 pouce
Profondeur de la couche neigeuse Non disponible.
UV 0 sur 12
Pollen .10 sur 12
Qualité de l'air Non disponible.
Flu Activity Non disponible.
METAR KGFL 200253Z AUTO 07006KT 10SM OVC022 M03/M07 A3020 RMK AO2 SLP236 T10331072 53015

More Conditions Fewer Conditions

Pression 30.23 pouce
Visibilité 10.0 Miles terrestres
Nuages Couvert 2200 ft
Refroidissement éolien 26 ° F
Point de rosée 22 ° F
Humidité 85%
Précipitations 0.00 pouce
Profondeur de la couche neigeuse Non disponible.
UV 0 sur 12
Pollen .10 sur 12
Qualité de l'air Non disponible.
Flu Activity Non disponible.
METAR KGFL 200253Z AUTO 07006KT 10SM OVC022 M03/M07 A3020 RMK AO2 SLP236 T10331072 53015

More Conditions Fewer Conditions

10-Day Weather Forecast

Almanac

Astronomie

Dec. 19, 2014 Lever Coucher
Temps réel
Crépuscule civil
Crépuscule nautique
Crépuscule astronomique
Lune
Durée de lumière visible
Longueur du jour
Tomorrow will be .
, % of the Moon is Illuminated

Extrêmes aujourd'hui

State Highs State Lows

Community

WunderPhotos

Upload Photos

1,779,116 Photos téléchargées !

WunderBlogs® & News

Nearby

Qualité de l'air

  Qualité de l'air Indice de la qualité de l'air Polluant
Not available.

Épaisseur de neige

Station Depth Altitude

Activité sismique

Ville Distance Mag. Time & Date
Minimum magnitude displayed is 2.5.

Températures des eaux côtières

Lieu Température

Stations météo à proximité